createdAt,value
2019-03-24T00:00:55.431Z,9.25
2019-03-24T00:03:23.703Z,8.45
2019-03-24T00:05:51.956Z,8.38
2019-03-24T00:08:20.163Z,9.50
2019-03-24T00:10:48.433Z,8.35
2019-03-24T00:13:16.639Z,8.45
2019-03-24T00:15:44.884Z,8.23
2019-03-24T00:18:13.080Z,7.63
2019-03-24T00:20:41.302Z,8.60
2019-03-24T00:23:09.547Z,8.68
2019-03-24T00:25:37.756Z,8.25
2019-03-24T00:28:06.000Z,7.70
2019-03-24T00:30:34.264Z,8.18
2019-03-24T00:33:02.431Z,7.80
2019-03-24T00:35:30.631Z,8.25
2019-03-24T00:37:58.856Z,8.78
2019-03-24T00:40:27.081Z,8.60
2019-03-24T00:42:55.289Z,8.05
2019-03-24T00:45:36.240Z,7.87
2019-03-24T00:47:56.145Z,7.42
2019-03-24T00:50:24.356Z,9.08
2019-03-24T00:52:52.608Z,7.87
2019-03-24T00:55:20.829Z,7.30
2019-03-24T00:57:49.039Z,8.20
2019-03-24T01:00:17.279Z,6.53
2019-03-24T01:02:45.509Z,7.77
2019-03-24T01:05:13.734Z,8.38
2019-03-24T01:07:41.960Z,7.42
2019-03-24T01:10:10.179Z,7.72
2019-03-24T01:12:38.410Z,8.10
2019-03-24T01:15:07.662Z,7.47
2019-03-24T01:17:36.559Z,8.10
2019-03-24T01:20:07.115Z,7.22
2019-03-24T01:22:35.820Z,7.60
2019-03-24T01:25:04.796Z,8.50
2019-03-24T01:27:33.010Z,8.60
2019-03-24T01:30:01.217Z,7.40
2019-03-24T01:32:29.439Z,8.13
2019-03-24T01:34:57.645Z,8.20
2019-03-24T01:37:25.865Z,7.53
2019-03-24T01:39:54.077Z,7.83
2019-03-24T01:42:22.291Z,8.33
2019-03-24T01:44:50.504Z,7.40
2019-03-24T01:47:18.718Z,8.60
2019-03-24T01:49:46.939Z,7.25
2019-03-24T01:52:15.154Z,8.13
2019-03-24T01:54:43.371Z,7.95
2019-03-24T01:57:11.599Z,7.62
2019-03-24T01:59:39.819Z,7.08
2019-03-24T02:02:08.028Z,8.35
2019-03-24T02:04:36.309Z,7.83
2019-03-24T02:07:04.478Z,7.45
2019-03-24T02:09:32.691Z,7.42
2019-03-24T02:12:00.946Z,8.00
2019-03-24T02:14:29.162Z,7.40
2019-03-24T02:16:59.214Z,8.48
2019-03-24T02:19:27.516Z,8.53
2019-03-24T02:21:55.755Z,7.70
2019-03-24T02:24:23.961Z,7.30
2019-03-24T02:26:52.179Z,8.18
2019-03-24T02:29:20.390Z,8.30
2019-03-24T02:31:48.634Z,7.70
2019-03-24T02:34:16.830Z,8.30
2019-03-24T02:36:45.410Z,8.83
2019-03-24T02:39:13.627Z,7.33
2019-03-24T02:41:41.835Z,8.53
2019-03-24T02:44:10.061Z,7.30
2019-03-24T02:46:38.265Z,8.17
2019-03-24T02:49:06.498Z,8.45
2019-03-24T02:51:34.708Z,8.38
2019-03-24T02:54:02.926Z,8.73
2019-03-24T02:56:31.121Z,9.23
2019-03-24T02:58:59.347Z,8.03
2019-03-24T03:01:27.618Z,7.75
2019-03-24T03:03:55.881Z,8.18
2019-03-24T03:06:24.111Z,8.58
2019-03-24T03:08:52.322Z,9.40
2019-03-24T03:11:20.554Z,8.50
2019-03-24T03:13:48.765Z,8.15
2019-03-24T03:16:16.994Z,9.83
2019-03-24T03:18:45.197Z,8.93
2019-03-24T03:21:13.422Z,8.37
2019-03-24T03:23:41.630Z,9.00
2019-03-24T03:26:09.847Z,8.35
2019-03-24T03:28:38.073Z,9.53
2019-03-24T03:31:06.279Z,8.93
2019-03-24T03:33:34.492Z,8.70
2019-03-24T03:36:02.709Z,8.33
2019-03-24T03:38:30.954Z,8.15
2019-03-24T03:40:59.506Z,8.85
2019-03-24T03:43:27.694Z,8.38
2019-03-24T03:45:55.907Z,8.03
2019-03-24T03:48:24.123Z,8.83
2019-03-24T03:50:52.338Z,7.83
2019-03-24T03:53:20.562Z,8.03
2019-03-24T03:55:48.775Z,8.10
2019-03-24T03:58:16.988Z,8.15
2019-03-24T04:00:45.193Z,9.77
2019-03-24T04:03:13.417Z,9.35
2019-03-24T04:05:41.639Z,8.73
2019-03-24T04:08:09.849Z,8.50
2019-03-24T04:10:38.104Z,8.03
2019-03-24T04:13:06.312Z,8.68
2019-03-24T04:15:34.542Z,8.58
2019-03-24T04:18:02.737Z,8.10
2019-03-24T04:20:30.934Z,9.33
2019-03-24T04:22:59.730Z,8.45
2019-03-24T04:25:27.937Z,8.33
2019-03-24T04:27:56.159Z,7.75
2019-03-24T04:30:24.371Z,8.03
2019-03-24T04:32:52.585Z,8.63
2019-03-24T04:35:20.799Z,8.28
2019-03-24T04:37:49.009Z,7.70
2019-03-24T04:40:17.221Z,8.68
2019-03-24T04:42:45.432Z,8.48
2019-03-24T04:45:13.654Z,7.75
2019-03-24T04:47:41.868Z,8.73
2019-03-24T04:50:10.081Z,8.30
2019-03-24T04:52:38.294Z,7.92
2019-03-24T04:55:07.005Z,8.53
2019-03-24T04:57:35.216Z,8.63
2019-03-24T05:00:07.378Z,7.33
2019-03-24T05:02:35.597Z,7.67
2019-03-24T05:05:05.353Z,8.08
2019-03-24T05:07:33.568Z,8.45
2019-03-24T05:10:02.142Z,8.70
2019-03-24T05:12:30.366Z,7.90
2019-03-24T05:14:58.616Z,8.18
2019-03-24T05:17:27.479Z,7.05
2019-03-24T05:19:55.952Z,8.35
2019-03-24T05:22:24.151Z,8.30
2019-03-24T05:24:52.375Z,10.05
2019-03-24T05:27:20.588Z,7.65
2019-03-24T05:29:48.838Z,8.30
2019-03-24T05:32:17.051Z,8.10
2019-03-24T05:34:45.274Z,7.65
2019-03-24T05:37:13.477Z,7.67
2019-03-24T05:39:41.706Z,8.10
2019-03-24T05:42:09.976Z,7.20
2019-03-24T05:44:38.318Z,8.20
2019-03-24T05:47:06.549Z,8.08
2019-03-24T05:49:34.768Z,7.92
2019-03-24T05:52:02.993Z,9.00
2019-03-24T05:54:31.224Z,8.73
2019-03-24T05:57:00.502Z,8.70
2019-03-24T05:59:28.711Z,8.78
2019-03-24T06:01:56.938Z,7.05
2019-03-24T06:04:25.168Z,7.12
2019-03-24T06:06:53.391Z,9.10
2019-03-24T06:09:21.594Z,9.13
2019-03-24T06:11:49.880Z,9.48
2019-03-24T06:14:18.101Z,8.83
2019-03-24T06:16:46.411Z,8.65
2019-03-24T06:19:14.628Z,10.13
2019-03-24T06:21:42.841Z,10.03
2019-03-24T06:24:11.085Z,10.40
2019-03-24T06:26:39.302Z,12.23
2019-03-24T06:29:07.535Z,11.48
2019-03-24T06:31:35.743Z,10.80
2019-03-24T06:34:03.961Z,10.35
2019-03-24T06:36:32.260Z,11.40
2019-03-24T06:39:00.726Z,10.10
2019-03-24T06:41:28.955Z,10.03
2019-03-24T06:43:57.173Z,9.48
2019-03-24T06:46:25.390Z,8.88
2019-03-24T06:48:53.633Z,9.15
2019-03-24T06:51:21.845Z,8.33
2019-03-24T06:53:50.072Z,8.93
2019-03-24T06:56:18.284Z,9.53
2019-03-24T06:58:46.541Z,8.50
2019-03-24T07:01:14.745Z,9.23
2019-03-24T07:03:42.967Z,8.90
2019-03-24T07:06:11.209Z,7.92
2019-03-24T07:08:39.418Z,7.87
2019-03-24T07:11:13.335Z,7.97
2019-03-24T07:13:37.567Z,8.40
2019-03-24T07:16:05.790Z,8.03
2019-03-24T07:18:34.021Z,6.78
2019-03-24T07:21:02.621Z,7.80
2019-03-24T07:23:31.028Z,7.60
2019-03-24T07:25:59.228Z,7.42
2019-03-24T07:28:27.454Z,7.97
2019-03-24T07:30:55.683Z,7.58
2019-03-24T07:33:23.898Z,6.87
2019-03-24T07:35:52.119Z,8.50
2019-03-24T07:38:20.339Z,7.85
2019-03-24T07:40:48.571Z,7.22
2019-03-24T07:43:16.793Z,8.30
2019-03-24T07:45:45.021Z,8.17
2019-03-24T07:48:18.951Z,7.85
2019-03-24T07:50:43.169Z,7.83
2019-03-24T07:53:11.423Z,7.70
2019-03-24T07:55:39.646Z,7.58
2019-03-24T07:58:07.867Z,8.20
2019-03-24T08:00:37.234Z,7.30
2019-03-24T08:03:05.514Z,7.75
2019-03-24T08:05:33.732Z,8.38
2019-03-24T08:08:01.957Z,7.30
2019-03-24T08:10:31.211Z,7.75
2019-03-24T08:12:59.421Z,7.70
2019-03-24T08:15:27.658Z,7.60
2019-03-24T08:17:55.848Z,7.90
2019-03-24T08:20:24.086Z,7.30
2019-03-24T08:22:52.312Z,7.90
2019-03-24T08:25:20.527Z,7.00
2019-03-24T08:27:48.763Z,7.60
2019-03-24T08:30:20.223Z,7.12
2019-03-24T08:32:48.447Z,7.20
2019-03-24T08:35:16.656Z,7.08
2019-03-24T08:37:44.876Z,7.03
2019-03-24T08:40:13.130Z,6.90
2019-03-24T08:42:41.336Z,7.47
2019-03-24T08:45:12.854Z,7.03
2019-03-24T08:47:41.058Z,6.80
2019-03-24T08:50:09.307Z,6.83
2019-03-24T08:52:37.540Z,7.40
2019-03-24T08:55:06.395Z,7.12
2019-03-24T08:57:34.610Z,7.25
2019-03-24T09:00:03.998Z,6.35
2019-03-24T09:02:32.505Z,6.97
2019-03-24T09:05:01.673Z,6.53
2019-03-24T09:07:30.050Z,7.30
2019-03-24T09:09:58.278Z,6.17
2019-03-24T09:12:26.497Z,7.55
2019-03-24T09:14:54.708Z,7.35
2019-03-24T09:17:22.991Z,6.85
2019-03-24T09:19:51.170Z,7.10
2019-03-24T09:22:19.394Z,7.37
2019-03-24T09:24:47.704Z,6.58
2019-03-24T09:27:15.909Z,7.22
2019-03-24T09:29:44.134Z,6.62
2019-03-24T09:32:12.355Z,7.00
2019-03-24T09:34:40.660Z,6.62
2019-03-24T09:37:08.897Z,6.33
2019-03-24T09:39:37.115Z,6.00
2019-03-24T09:42:05.364Z,6.60
2019-03-24T09:44:33.584Z,6.95
2019-03-24T09:47:02.534Z,6.05
2019-03-24T09:49:30.760Z,6.83
2019-03-24T09:51:58.971Z,6.47
2019-03-24T09:54:27.198Z,6.28
2019-03-24T09:56:55.481Z,6.80
2019-03-24T09:59:23.719Z,6.33
2019-03-24T10:01:51.932Z,6.60
2019-03-24T10:04:20.146Z,6.85
2019-03-24T10:06:48.368Z,5.87
2019-03-24T10:09:16.585Z,6.20
2019-03-24T10:11:44.805Z,6.17
2019-03-24T10:14:13.026Z,6.70
2019-03-24T10:16:41.277Z,6.60
2019-03-24T10:19:13.902Z,5.58
2019-03-24T10:21:39.430Z,6.87
2019-03-24T10:24:08.019Z,6.50
2019-03-24T10:26:36.346Z,6.80
2019-03-24T10:29:04.575Z,6.53
2019-03-24T10:31:32.793Z,6.40
2019-03-24T10:34:01.063Z,6.67
2019-03-24T10:36:29.281Z,7.08
2019-03-24T10:38:57.556Z,6.67
2019-03-24T10:41:25.780Z,6.30
2019-03-24T10:43:54.264Z,6.60
2019-03-24T10:46:22.474Z,6.60
2019-03-24T10:48:50.695Z,6.72
2019-03-24T10:51:18.917Z,7.03
2019-03-24T10:53:47.138Z,6.40
2019-03-24T10:56:15.350Z,6.00
2019-03-24T10:58:43.565Z,6.42
2019-03-24T11:01:11.816Z,6.03
2019-03-24T11:03:40.050Z,6.05
2019-03-24T11:06:08.415Z,5.96
2019-03-24T11:08:36.793Z,5.90
2019-03-24T11:11:05.018Z,5.70
2019-03-24T11:13:33.235Z,6.62
2019-03-24T11:16:01.450Z,6.00
2019-03-24T11:18:29.677Z,6.23
2019-03-24T11:20:57.891Z,5.50
2019-03-24T11:23:26.145Z,6.17
2019-03-24T11:25:54.360Z,6.65
2019-03-24T11:28:22.583Z,5.80
2019-03-24T11:30:50.803Z,6.50
2019-03-24T11:33:19.035Z,7.00
2019-03-24T11:35:47.272Z,5.95
2019-03-24T11:38:15.483Z,6.17
2019-03-24T11:40:43.705Z,5.22
2019-03-24T11:43:11.929Z,6.00
2019-03-24T11:45:40.151Z,5.70
2019-03-24T11:48:08.392Z,5.78
2019-03-24T11:50:36.642Z,5.97
2019-03-24T11:53:04.867Z,5.85
2019-03-24T11:55:33.102Z,6.10
2019-03-24T11:58:05.828Z,6.12
2019-03-24T12:00:35.620Z,6.47
2019-03-24T12:03:03.834Z,5.65
2019-03-24T12:05:33.099Z,5.25
2019-03-24T12:08:01.329Z,5.95
2019-03-24T12:10:29.547Z,6.12
2019-03-24T12:12:57.774Z,5.97
2019-03-24T12:15:26.008Z,6.45
2019-03-24T12:17:54.406Z,5.70
2019-03-24T12:20:22.624Z,5.35
2019-03-24T12:22:50.858Z,5.17
2019-03-24T12:25:19.077Z,5.30
2019-03-24T12:27:47.296Z,5.53
2019-03-24T12:30:15.596Z,5.47
2019-03-24T12:32:43.852Z,5.35
2019-03-24T12:35:12.495Z,5.37
2019-03-24T12:37:40.719Z,5.67
2019-03-24T12:40:09.768Z,5.72
2019-03-24T12:42:38.921Z,6.03
2019-03-24T12:45:07.675Z,5.12
2019-03-24T12:47:35.920Z,5.37
2019-03-24T12:50:09.284Z,5.78
2019-03-24T12:52:36.135Z,5.37
2019-03-24T12:55:05.098Z,5.92
2019-03-24T12:57:33.522Z,5.03
2019-03-24T13:00:01.765Z,4.97
2019-03-24T13:02:29.976Z,5.60
2019-03-24T13:04:58.192Z,4.97
2019-03-24T13:07:26.435Z,4.85
2019-03-24T13:09:54.646Z,4.95
2019-03-24T13:12:22.889Z,5.30
2019-03-24T13:14:51.090Z,4.78
2019-03-24T13:17:19.310Z,4.58
2019-03-24T13:19:49.220Z,4.80
2019-03-24T13:22:17.430Z,4.53
2019-03-24T13:24:45.671Z,4.70
2019-03-24T13:27:13.886Z,4.62
2019-03-24T13:29:42.103Z,4.83
2019-03-24T13:32:10.316Z,4.75
2019-03-24T13:34:38.526Z,4.83
2019-03-24T13:37:06.769Z,4.97
2019-03-24T13:39:34.991Z,4.62
2019-03-24T13:42:03.880Z,4.97
2019-03-24T13:44:32.094Z,4.70
2019-03-24T13:47:00.312Z,4.72
2019-03-24T13:49:28.536Z,4.90
2019-03-24T13:51:56.755Z,4.70
2019-03-24T13:54:24.986Z,4.97
2019-03-24T13:56:53.202Z,4.58
2019-03-24T13:59:21.819Z,5.12
2019-03-24T14:01:51.658Z,4.60
2019-03-24T14:04:19.895Z,4.72
2019-03-24T14:06:51.026Z,5.17
2019-03-24T14:09:19.289Z,4.70
2019-03-24T14:11:47.561Z,5.00
2019-03-24T14:14:15.778Z,4.62
2019-03-24T14:16:46.500Z,5.10
2019-03-24T14:19:13.944Z,4.87
2019-03-24T14:21:42.169Z,5.15
2019-03-24T14:24:10.417Z,4.60
2019-03-24T14:26:38.621Z,4.60
2019-03-24T14:29:06.841Z,4.45
2019-03-24T14:31:35.050Z,4.60
2019-03-24T14:34:04.330Z,4.90
2019-03-24T14:36:32.561Z,4.50
2019-03-24T14:39:00.789Z,4.78
2019-03-24T14:41:29.007Z,5.25
2019-03-24T14:43:57.224Z,5.07
2019-03-24T14:46:25.449Z,5.37
2019-03-24T14:48:53.679Z,4.92
2019-03-24T14:51:21.902Z,5.47
2019-03-24T14:53:50.121Z,4.75
2019-03-24T14:56:18.332Z,4.70
2019-03-24T14:58:46.557Z,4.97
2019-03-24T15:01:14.774Z,4.90
2019-03-24T15:03:43.007Z,4.70
2019-03-24T15:06:11.223Z,5.03
2019-03-24T15:08:39.446Z,4.93
2019-03-24T15:11:07.672Z,5.54
2019-03-24T15:13:35.905Z,5.42
2019-03-24T15:16:04.530Z,5.30
2019-03-24T15:18:32.757Z,5.42
2019-03-24T15:21:05.682Z,5.25
2019-03-24T15:23:30.989Z,5.00
2019-03-24T15:25:59.210Z,5.40
2019-03-24T15:28:27.424Z,5.30
2019-03-24T15:30:55.659Z,5.53
2019-03-24T15:33:23.888Z,5.40
2019-03-24T15:35:52.102Z,5.78
2019-03-24T15:38:20.343Z,5.62
2019-03-24T15:40:49.534Z,5.83
2019-03-24T15:43:17.900Z,5.95
2019-03-24T15:45:46.197Z,5.58
2019-03-24T15:48:14.418Z,5.60
2019-03-24T15:50:42.658Z,5.93
2019-03-24T15:53:10.873Z,5.70
2019-03-24T15:55:39.101Z,5.70
2019-03-24T15:58:07.326Z,5.75
2019-03-24T16:00:47.698Z,5.67
2019-03-24T16:03:15.901Z,5.03
2019-03-24T16:05:44.131Z,5.17
2019-03-24T16:08:12.348Z,5.70
2019-03-24T16:10:40.568Z,5.60
2019-03-24T16:13:08.886Z,6.57
2019-03-24T16:15:37.093Z,6.30
2019-03-24T16:18:05.330Z,6.62
2019-03-24T16:20:33.538Z,5.67
2019-03-24T16:23:01.760Z,5.92
2019-03-24T16:25:30.226Z,5.95
2019-03-24T16:27:58.450Z,6.17
2019-03-24T16:30:26.671Z,5.75
2019-03-24T16:32:54.963Z,5.90
2019-03-24T16:35:23.178Z,6.15
2019-03-24T16:37:51.439Z,5.92
2019-03-24T16:40:19.780Z,5.65
2019-03-24T16:42:48.003Z,5.93
2019-03-24T16:45:16.224Z,5.87
2019-03-24T16:47:44.472Z,6.47
2019-03-24T16:50:12.704Z,6.30
2019-03-24T16:52:40.914Z,6.08
2019-03-24T16:55:09.156Z,6.05
2019-03-24T16:57:37.360Z,5.90
2019-03-24T17:00:08.544Z,5.58
2019-03-24T17:05:09.237Z,6.45
2019-03-24T17:07:37.466Z,6.60
2019-03-24T17:10:06.623Z,5.65
2019-03-24T17:12:35.600Z,5.92
2019-03-24T17:15:05.862Z,5.50
2019-03-24T17:17:34.082Z,5.80
2019-03-24T17:20:02.299Z,5.95
2019-03-24T17:22:30.524Z,7.15
2019-03-24T17:24:58.739Z,6.00
2019-03-24T17:27:26.963Z,5.37
2019-03-24T17:29:55.299Z,6.55
2019-03-24T17:32:23.530Z,5.37
2019-03-24T17:34:51.792Z,5.47
2019-03-24T17:37:20.042Z,5.28
2019-03-24T17:39:48.269Z,5.50
2019-03-24T17:42:16.564Z,5.80
2019-03-24T17:44:46.183Z,5.47
2019-03-24T17:47:14.535Z,6.20
2019-03-24T17:49:42.782Z,5.87
2019-03-24T17:52:11.000Z,6.00
2019-03-24T17:54:39.226Z,6.12
2019-03-24T17:57:07.482Z,6.40
2019-03-24T17:59:35.709Z,5.95
2019-03-24T18:02:14.006Z,6.53
2019-03-24T18:04:33.856Z,6.53
2019-03-24T18:07:02.068Z,6.22
2019-03-24T18:09:31.111Z,5.15
2019-03-24T18:11:59.390Z,5.15
2019-03-24T18:14:27.604Z,5.50
2019-03-24T18:16:55.820Z,6.30
2019-03-24T18:19:24.051Z,5.28
2019-03-24T18:21:52.276Z,5.03
2019-03-24T18:24:20.499Z,5.30
2019-03-24T18:26:48.789Z,5.37
2019-03-24T18:29:17.018Z,5.15
2019-03-24T18:31:45.227Z,5.12
2019-03-24T18:34:13.434Z,5.03
2019-03-24T18:36:41.651Z,5.23
2019-03-24T18:39:09.861Z,4.78
2019-03-24T18:41:38.086Z,4.78
2019-03-24T18:44:06.304Z,5.62
2019-03-24T18:46:34.538Z,5.45
2019-03-24T18:49:02.775Z,5.03
2019-03-24T18:51:30.981Z,5.47
2019-03-24T18:53:59.196Z,5.35
2019-03-24T18:56:27.473Z,5.22
2019-03-24T18:58:55.704Z,5.42
2019-03-24T19:01:23.922Z,5.22
2019-03-24T19:03:52.137Z,5.03
2019-03-24T19:06:20.361Z,5.22
2019-03-24T19:08:48.570Z,5.08
2019-03-24T19:11:16.790Z,5.20
2019-03-24T19:13:45.035Z,5.33
2019-03-24T19:16:13.232Z,5.30
2019-03-24T19:18:41.454Z,6.33
2019-03-24T19:21:09.664Z,5.62
2019-03-24T19:23:37.912Z,4.80
2019-03-24T19:26:06.622Z,5.00
2019-03-24T19:28:34.847Z,4.65
2019-03-24T19:31:03.069Z,4.80
2019-03-24T19:33:31.332Z,5.12
2019-03-24T19:35:59.545Z,5.53
2019-03-24T19:38:27.778Z,4.95
2019-03-24T19:40:56.014Z,5.33
2019-03-24T19:43:24.236Z,4.83
2019-03-24T19:45:52.446Z,4.70
2019-03-24T19:48:20.707Z,4.67
2019-03-24T19:50:48.930Z,4.65
2019-03-24T19:53:17.152Z,4.50
2019-03-24T19:55:45.375Z,4.55
2019-03-24T19:58:13.577Z,4.30
2019-03-24T20:00:41.793Z,4.50
2019-03-24T20:03:10.021Z,4.70
2019-03-24T20:05:38.230Z,5.30
2019-03-24T20:08:06.846Z,5.60
2019-03-24T20:10:35.067Z,6.00
2019-03-24T20:13:03.303Z,7.40
2019-03-24T20:15:31.515Z,15.13
2019-03-24T20:17:59.743Z,6.10
2019-03-24T20:20:27.970Z,6.30
2019-03-24T20:22:57.099Z,5.62
2019-03-24T20:25:25.796Z,5.50
2019-03-24T20:27:54.005Z,4.80
2019-03-24T20:30:22.246Z,4.97
2019-03-24T20:32:50.435Z,6.80
2019-03-24T20:35:18.657Z,5.40
2019-03-24T20:37:46.868Z,5.60
2019-03-24T20:40:15.148Z,5.05
2019-03-24T20:42:43.366Z,5.08
2019-03-24T20:45:11.577Z,5.25
2019-03-24T20:47:39.785Z,4.60
2019-03-24T20:50:08.461Z,5.67
2019-03-24T20:52:37.101Z,5.00
2019-03-24T20:55:06.960Z,4.50
2019-03-24T20:57:35.171Z,5.27
2019-03-24T21:00:03.525Z,5.15
2019-03-24T21:02:31.750Z,4.62
2019-03-24T21:04:59.964Z,4.60
2019-03-24T21:07:28.182Z,5.00
2019-03-24T21:09:56.393Z,4.37
2019-03-24T21:12:24.609Z,4.60
2019-03-24T21:14:52.877Z,4.78
2019-03-24T21:17:21.605Z,4.92
2019-03-24T21:19:50.095Z,5.22
2019-03-24T21:22:18.307Z,5.12
2019-03-24T21:24:46.516Z,4.75
2019-03-24T21:27:14.732Z,4.37
2019-03-24T21:29:42.942Z,5.40
2019-03-24T21:32:11.162Z,5.35
2019-03-24T21:34:39.402Z,4.47
2019-03-24T21:37:07.604Z,4.65
2019-03-24T21:39:35.840Z,4.90
2019-03-24T21:42:04.060Z,5.33
2019-03-24T21:44:32.270Z,4.40
2019-03-24T21:47:00.486Z,4.40
2019-03-24T21:49:28.708Z,4.67
2019-03-24T21:51:56.920Z,4.70
2019-03-24T21:54:25.153Z,5.35
2019-03-24T21:56:53.341Z,4.80
2019-03-24T21:59:21.563Z,4.22
2019-03-24T22:01:49.772Z,4.60
2019-03-24T22:04:18.000Z,4.72
2019-03-24T22:06:46.206Z,4.40
2019-03-24T22:09:14.415Z,5.33
2019-03-24T22:11:42.640Z,4.30
2019-03-24T22:14:10.859Z,5.00
2019-03-24T22:16:39.063Z,4.67
2019-03-24T22:19:07.821Z,4.60
2019-03-24T22:21:36.182Z,4.92
2019-03-24T22:24:04.396Z,5.47
2019-03-24T22:26:32.616Z,5.12
2019-03-24T22:29:00.832Z,4.75
2019-03-24T22:31:29.080Z,5.03
2019-03-24T22:33:57.315Z,5.12
2019-03-24T22:36:26.668Z,5.78
2019-03-24T22:38:54.867Z,5.53
2019-03-24T22:41:23.081Z,5.05
2019-03-24T22:43:51.301Z,5.40
2019-03-24T22:46:21.192Z,5.03
2019-03-24T22:48:49.444Z,5.20
2019-03-24T22:51:17.653Z,4.87
2019-03-24T22:53:45.878Z,5.53
2019-03-24T22:56:14.092Z,4.83
2019-03-24T22:58:42.314Z,4.72
2019-03-24T23:01:10.817Z,7.25
2019-03-24T23:03:39.049Z,5.00
2019-03-24T23:06:08.224Z,5.05
2019-03-24T23:08:36.442Z,5.45
2019-03-24T23:11:04.693Z,4.97
2019-03-24T23:13:32.942Z,5.78
2019-03-24T23:16:01.204Z,5.70
2019-03-24T23:18:29.418Z,6.53
2019-03-24T23:20:57.658Z,6.00
2019-03-24T23:23:25.877Z,5.72
2019-03-24T23:25:54.085Z,5.58
2019-03-24T23:28:22.327Z,5.67
2019-03-24T23:30:50.544Z,5.67
2019-03-24T23:33:18.753Z,6.12
2019-03-24T23:35:47.000Z,5.75
2019-03-24T23:38:15.219Z,6.22
2019-03-24T23:40:43.435Z,5.92
2019-03-24T23:43:11.643Z,5.22
2019-03-24T23:45:39.873Z,5.80
2019-03-24T23:48:08.635Z,6.03
2019-03-24T23:50:36.857Z,6.22
2019-03-24T23:53:05.072Z,5.60
2019-03-24T23:55:33.300Z,5.67
2019-03-24T23:58:01.533Z,6.20
